sensor_id;sensor_type;location;lat;lon;timestamp;P1;durP1;ratioP1;P2;durP2;ratioP2
4363;SDS011;15337;48.202;12.770;2022-08-21T00:00:08;7.65;;;7.00;;
4363;SDS011;15337;48.202;12.770;2022-08-21T00:02:37;7.60;;;6.88;;
4363;SDS011;15337;48.202;12.770;2022-08-21T00:05:11;6.32;;;6.00;;
4363;SDS011;15337;48.202;12.770;2022-08-21T00:07:38;9.90;;;6.72;;
4363;SDS011;15337;48.202;12.770;2022-08-21T00:10:05;7.00;;;6.50;;
4363;SDS011;15337;48.202;12.770;2022-08-21T00:12:34;7.53;;;7.03;;
4363;SDS011;15337;48.202;12.770;2022-08-21T00:15:01;6.70;;;6.25;;
4363;SDS011;15337;48.202;12.770;2022-08-21T00:17:28;6.88;;;6.47;;
4363;SDS011;15337;48.202;12.770;2022-08-21T00:19:55;5.82;;;5.53;;
4363;SDS011;15337;48.202;12.770;2022-08-21T00:22:22;7.35;;;6.65;;
4363;SDS011;15337;48.202;12.770;2022-08-21T00:24:49;6.60;;;6.05;;
4363;SDS011;15337;48.202;12.770;2022-08-21T00:27:16;7.05;;;6.55;;
4363;SDS011;15337;48.202;12.770;2022-08-21T00:29:44;7.35;;;6.65;;
4363;SDS011;15337;48.202;12.770;2022-08-21T00:32:11;7.07;;;6.55;;
4363;SDS011;15337;48.202;12.770;2022-08-21T00:34:38;7.07;;;6.57;;
4363;SDS011;15337;48.202;12.770;2022-08-21T00:37:05;8.30;;;6.50;;
4363;SDS011;15337;48.202;12.770;2022-08-21T00:39:33;7.78;;;7.28;;
4363;SDS011;15337;48.202;12.770;2022-08-21T00:41:59;7.43;;;7.03;;
4363;SDS011;15337;48.202;12.770;2022-08-21T00:44:27;7.78;;;6.72;;
4363;SDS011;15337;48.202;12.770;2022-08-21T00:46:55;8.82;;;7.82;;
4363;SDS011;15337;48.202;12.770;2022-08-21T00:49:22;7.32;;;6.88;;
4363;SDS011;15337;48.202;12.770;2022-08-21T00:51:50;7.10;;;6.60;;
4363;SDS011;15337;48.202;12.770;2022-08-21T00:54:20;7.25;;;6.68;;
4363;SDS011;15337;48.202;12.770;2022-08-21T00:56:53;7.57;;;6.47;;
4363;SDS011;15337;48.202;12.770;2022-08-21T00:59:22;6.80;;;6.40;;
4363;SDS011;15337;48.202;12.770;2022-08-21T01:01:51;6.95;;;6.45;;
4363;SDS011;15337;48.202;12.770;2022-08-21T01:04:20;7.63;;;7.13;;
4363;SDS011;15337;48.202;12.770;2022-08-21T01:06:48;8.00;;;6.32;;
4363;SDS011;15337;48.202;12.770;2022-08-21T01:09:16;12.45;;;6.55;;
4363;SDS011;15337;48.202;12.770;2022-08-21T01:11:44;11.13;;;6.60;;
4363;SDS011;15337;48.202;12.770;2022-08-21T01:14:12;13.23;;;7.22;;
4363;SDS011;15337;48.202;12.770;2022-08-21T01:16:40;7.50;;;6.85;;
4363;SDS011;15337;48.202;12.770;2022-08-21T01:19:10;7.50;;;6.82;;
4363;SDS011;15337;48.202;12.770;2022-08-21T01:21:40;11.85;;;7.88;;
4363;SDS011;15337;48.202;12.770;2022-08-21T01:24:08;8.48;;;6.47;;
4363;SDS011;15337;48.202;12.770;2022-08-21T01:26:35;8.07;;;7.47;;
4363;SDS011;15337;48.202;12.770;2022-08-21T01:29:05;7.35;;;6.72;;
4363;SDS011;15337;48.202;12.770;2022-08-21T01:31:37;9.05;;;8.20;;
4363;SDS011;15337;48.202;12.770;2022-08-21T01:34:04;7.93;;;7.13;;
4363;SDS011;15337;48.202;12.770;2022-08-21T01:36:32;8.90;;;8.07;;
4363;SDS011;15337;48.202;12.770;2022-08-21T01:39:01;8.18;;;7.47;;
4363;SDS011;15337;48.202;12.770;2022-08-21T01:41:30;8.20;;;7.53;;
4363;SDS011;15337;48.202;12.770;2022-08-21T01:43:56;12.70;;;7.40;;
4363;SDS011;15337;48.202;12.770;2022-08-21T01:46:23;7.45;;;6.72;;
4363;SDS011;15337;48.202;12.770;2022-08-21T01:48:51;7.82;;;7.22;;
4363;SDS011;15337;48.202;12.770;2022-08-21T01:51:17;7.72;;;7.13;;
4363;SDS011;15337;48.202;12.770;2022-08-21T01:53:44;8.55;;;7.70;;
4363;SDS011;15337;48.202;12.770;2022-08-21T01:56:13;8.15;;;7.47;;
4363;SDS011;15337;48.202;12.770;2022-08-21T01:58:42;8.73;;;7.82;;
4363;SDS011;15337;48.202;12.770;2022-08-21T02:01:11;13.38;;;6.88;;
4363;SDS011;15337;48.202;12.770;2022-08-21T02:03:40;13.75;;;7.78;;
4363;SDS011;15337;48.202;12.770;2022-08-21T02:06:07;9.75;;;7.13;;
4363;SDS011;15337;48.202;12.770;2022-08-21T02:08:40;9.95;;;7.80;;
4363;SDS011;15337;48.202;12.770;2022-08-21T02:11:07;8.80;;;7.90;;
4363;SDS011;15337;48.202;12.770;2022-08-21T02:13:35;7.50;;;6.80;;
4363;SDS011;15337;48.202;12.770;2022-08-21T02:16:02;6.68;;;6.28;;
4363;SDS011;15337;48.202;12.770;2022-08-21T02:18:29;9.90;;;8.10;;
4363;SDS011;15337;48.202;12.770;2022-08-21T02:20:56;7.38;;;6.88;;
4363;SDS011;15337;48.202;12.770;2022-08-21T02:23:23;19.20;;;7.60;;
4363;SDS011;15337;48.202;12.770;2022-08-21T02:25:51;7.20;;;6.50;;
4363;SDS011;15337;48.202;12.770;2022-08-21T02:28:17;7.45;;;6.95;;
4363;SDS011;15337;48.202;12.770;2022-08-21T02:30:46;7.43;;;6.88;;
4363;SDS011;15337;48.202;12.770;2022-08-21T02:33:13;10.57;;;6.50;;
4363;SDS011;15337;48.202;12.770;2022-08-21T02:35:42;8.30;;;7.72;;
4363;SDS011;15337;48.202;12.770;2022-08-21T02:38:11;13.85;;;7.63;;
4363;SDS011;15337;48.202;12.770;2022-08-21T02:40:41;6.82;;;5.90;;
4363;SDS011;15337;48.202;12.770;2022-08-21T02:43:09;6.90;;;6.47;;
4363;SDS011;15337;48.202;12.770;2022-08-21T02:45:36;8.93;;;7.68;;
4363;SDS011;15337;48.202;12.770;2022-08-21T02:48:07;7.07;;;6.28;;
4363;SDS011;15337;48.202;12.770;2022-08-21T02:50:37;6.93;;;6.53;;
4363;SDS011;15337;48.202;12.770;2022-08-21T02:53:07;10.90;;;6.15;;
4363;SDS011;15337;48.202;12.770;2022-08-21T02:55:35;5.82;;;5.53;;
4363;SDS011;15337;48.202;12.770;2022-08-21T02:58:03;6.00;;;5.55;;
4363;SDS011;15337;48.202;12.770;2022-08-21T03:00:33;6.78;;;6.40;;
4363;SDS011;15337;48.202;12.770;2022-08-21T03:03:01;10.32;;;7.20;;
4363;SDS011;15337;48.202;12.770;2022-08-21T03:05:30;6.93;;;6.25;;
4363;SDS011;15337;48.202;12.770;2022-08-21T03:07:59;5.22;;;4.85;;
4363;SDS011;15337;48.202;12.770;2022-08-21T03:10:26;6.25;;;5.75;;
4363;SDS011;15337;48.202;12.770;2022-08-21T03:12:54;8.00;;;6.75;;
4363;SDS011;15337;48.202;12.770;2022-08-21T03:15:21;10.05;;;7.43;;
4363;SDS011;15337;48.202;12.770;2022-08-21T03:17:50;6.57;;;6.07;;
4363;SDS011;15337;48.202;12.770;2022-08-21T03:20:19;7.97;;;6.57;;
4363;SDS011;15337;48.202;12.770;2022-08-21T03:22:50;5.90;;;5.60;;
4363;SDS011;15337;48.202;12.770;2022-08-21T03:25:18;11.77;;;6.57;;
4363;SDS011;15337;48.202;12.770;2022-08-21T03:27:45;9.93;;;6.13;;
4363;SDS011;15337;48.202;12.770;2022-08-21T03:30:14;8.75;;;7.00;;
4363;SDS011;15337;48.202;12.770;2022-08-21T03:32:42;16.73;;;6.35;;
4363;SDS011;15337;48.202;12.770;2022-08-21T03:35:09;6.68;;;6.28;;
4363;SDS011;15337;48.202;12.770;2022-08-21T03:37:36;7.65;;;6.25;;
4363;SDS011;15337;48.202;12.770;2022-08-21T03:40:05;6.38;;;5.47;;
4363;SDS011;15337;48.202;12.770;2022-08-21T03:42:34;7.80;;;6.95;;
4363;SDS011;15337;48.202;12.770;2022-08-21T03:45:01;7.10;;;6.13;;
4363;SDS011;15337;48.202;12.770;2022-08-21T03:47:29;6.22;;;5.88;;
4363;SDS011;15337;48.202;12.770;2022-08-21T03:49:55;6.78;;;6.22;;
4363;SDS011;15337;48.202;12.770;2022-08-21T03:52:22;6.30;;;5.90;;
4363;SDS011;15337;48.202;12.770;2022-08-21T03:54:49;7.00;;;6.47;;
4363;SDS011;15337;48.202;12.770;2022-08-21T03:57:18;7.13;;;6.63;;
4363;SDS011;15337;48.202;12.770;2022-08-21T03:59:45;14.02;;;6.50;;
4363;SDS011;15337;48.202;12.770;2022-08-21T04:02:12;7.32;;;6.82;;
4363;SDS011;15337;48.202;12.770;2022-08-21T04:04:42;7.53;;;6.53;;
4363;SDS011;15337;48.202;12.770;2022-08-21T04:07:08;6.82;;;6.32;;
4363;SDS011;15337;48.202;12.770;2022-08-21T04:09:35;8.18;;;6.40;;
4363;SDS011;15337;48.202;12.770;2022-08-21T04:12:03;7.07;;;6.43;;
4363;SDS011;15337;48.202;12.770;2022-08-21T04:14:32;10.13;;;8.38;;
4363;SDS011;15337;48.202;12.770;2022-08-21T04:16:58;11.05;;;5.82;;
4363;SDS011;15337;48.202;12.770;2022-08-21T04:19:25;6.18;;;5.63;;
4363;SDS011;15337;48.202;12.770;2022-08-21T04:21:52;10.48;;;7.15;;
4363;SDS011;15337;48.202;12.770;2022-08-21T04:24:19;7.40;;;5.53;;
4363;SDS011;15337;48.202;12.770;2022-08-21T04:26:46;11.23;;;7.28;;
4363;SDS011;15337;48.202;12.770;2022-08-21T04:29:13;7.18;;;6.68;;
4363;SDS011;15337;48.202;12.770;2022-08-21T04:31:41;8.93;;;7.07;;
4363;SDS011;15337;48.202;12.770;2022-08-21T04:34:08;6.50;;;6.05;;
4363;SDS011;15337;48.202;12.770;2022-08-21T04:36:35;7.53;;;6.90;;
4363;SDS011;15337;48.202;12.770;2022-08-21T04:39:02;8.70;;;6.95;;
4363;SDS011;15337;48.202;12.770;2022-08-21T04:41:29;6.30;;;5.90;;
4363;SDS011;15337;48.202;12.770;2022-08-21T04:43:56;7.63;;;7.10;;
4363;SDS011;15337;48.202;12.770;2022-08-21T04:46:24;9.15;;;6.55;;
4363;SDS011;15337;48.202;12.770;2022-08-21T04:48:53;7.32;;;6.50;;
4363;SDS011;15337;48.202;12.770;2022-08-21T04:51:21;7.07;;;6.25;;
4363;SDS011;15337;48.202;12.770;2022-08-21T04:53:52;6.63;;;6.32;;
4363;SDS011;15337;48.202;12.770;2022-08-21T04:56:23;6.82;;;6.22;;
4363;SDS011;15337;48.202;12.770;2022-08-21T04:58:54;6.32;;;5.82;;
4363;SDS011;15337;48.202;12.770;2022-08-21T05:01:23;6.65;;;5.43;;
4363;SDS011;15337;48.202;12.770;2022-08-21T05:03:54;6.45;;;5.68;;
4363;SDS011;15337;48.202;12.770;2022-08-21T05:06:23;5.90;;;5.60;;
4363;SDS011;15337;48.202;12.770;2022-08-21T05:08:51;6.38;;;6.07;;
4363;SDS011;15337;48.202;12.770;2022-08-21T05:11:21;5.55;;;5.20;;
4363;SDS011;15337;48.202;12.770;2022-08-21T05:13:48;12.90;;;6.15;;
4363;SDS011;15337;48.202;12.770;2022-08-21T05:16:15;6.32;;;5.88;;
4363;SDS011;15337;48.202;12.770;2022-08-21T05:18:43;5.80;;;5.30;;
4363;SDS011;15337;48.202;12.770;2022-08-21T05:21:11;5.65;;;5.32;;
4363;SDS011;15337;48.202;12.770;2022-08-21T05:23:38;6.53;;;6.00;;
4363;SDS011;15337;48.202;12.770;2022-08-21T05:26:05;4.63;;;4.22;;
4363;SDS011;15337;48.202;12.770;2022-08-21T05:28:32;5.50;;;5.10;;
4363;SDS011;15337;48.202;12.770;2022-08-21T05:30:58;5.38;;;4.93;;
4363;SDS011;15337;48.202;12.770;2022-08-21T05:33:25;5.80;;;5.40;;
4363;SDS011;15337;48.202;12.770;2022-08-21T05:35:53;5.72;;;5.22;;
4363;SDS011;15337;48.202;12.770;2022-08-21T05:38:22;5.57;;;5.15;;
4363;SDS011;15337;48.202;12.770;2022-08-21T05:40:50;6.35;;;6.05;;
4363;SDS011;15337;48.202;12.770;2022-08-21T05:43:16;6.00;;;5.40;;
4363;SDS011;15337;48.202;12.770;2022-08-21T05:45:43;5.18;;;4.88;;
4363;SDS011;15337;48.202;12.770;2022-08-21T05:48:11;7.32;;;5.43;;
4363;SDS011;15337;48.202;12.770;2022-08-21T05:50:40;4.75;;;4.55;;
4363;SDS011;15337;48.202;12.770;2022-08-21T05:53:07;5.28;;;4.90;;
4363;SDS011;15337;48.202;12.770;2022-08-21T05:55:37;8.88;;;5.68;;
4363;SDS011;15337;48.202;12.770;2022-08-21T05:58:04;7.05;;;5.00;;
4363;SDS011;15337;48.202;12.770;2022-08-21T06:00:31;8.52;;;5.68;;
4363;SDS011;15337;48.202;12.770;2022-08-21T06:02:58;5.82;;;5.32;;
4363;SDS011;15337;48.202;12.770;2022-08-21T06:05:26;4.85;;;4.55;;
4363;SDS011;15337;48.202;12.770;2022-08-21T06:07:52;4.85;;;4.47;;
4363;SDS011;15337;48.202;12.770;2022-08-21T06:10:19;5.85;;;5.43;;
4363;SDS011;15337;48.202;12.770;2022-08-21T06:12:48;9.20;;;5.28;;
4363;SDS011;15337;48.202;12.770;2022-08-21T06:15:20;5.43;;;5.13;;
4363;SDS011;15337;48.202;12.770;2022-08-21T06:17:47;6.13;;;5.50;;
4363;SDS011;15337;48.202;12.770;2022-08-21T06:20:14;6.30;;;6.00;;
4363;SDS011;15337;48.202;12.770;2022-08-21T06:22:41;5.93;;;5.63;;
4363;SDS011;15337;48.202;12.770;2022-08-21T06:25:08;6.45;;;5.47;;
4363;SDS011;15337;48.202;12.770;2022-08-21T06:27:35;9.77;;;5.40;;
4363;SDS011;15337;48.202;12.770;2022-08-21T06:30:04;6.13;;;4.90;;
4363;SDS011;15337;48.202;12.770;2022-08-21T06:32:32;6.55;;;5.75;;
4363;SDS011;15337;48.202;12.770;2022-08-21T06:34:59;7.43;;;5.68;;
4363;SDS011;15337;48.202;12.770;2022-08-21T06:37:26;5.93;;;5.57;;
4363;SDS011;15337;48.202;12.770;2022-08-21T06:39:53;6.13;;;5.60;;
4363;SDS011;15337;48.202;12.770;2022-08-21T06:42:20;5.00;;;4.65;;
4363;SDS011;15337;48.202;12.770;2022-08-21T06:44:47;5.00;;;4.72;;
4363;SDS011;15337;48.202;12.770;2022-08-21T06:47:15;5.60;;;5.15;;
4363;SDS011;15337;48.202;12.770;2022-08-21T06:49:42;5.05;;;4.47;;
4363;SDS011;15337;48.202;12.770;2022-08-21T06:52:09;4.45;;;4.25;;
4363;SDS011;15337;48.202;12.770;2022-08-21T06:54:37;5.95;;;5.55;;
4363;SDS011;15337;48.202;12.770;2022-08-21T06:57:04;5.63;;;5.32;;
4363;SDS011;15337;48.202;12.770;2022-08-21T06:59:31;5.90;;;4.85;;
4363;SDS011;15337;48.202;12.770;2022-08-21T07:01:59;6.15;;;4.60;;
4363;SDS011;15337;48.202;12.770;2022-08-21T07:04:27;4.80;;;4.50;;
4363;SDS011;15337;48.202;12.770;2022-08-21T07:06:55;6.72;;;4.72;;
4363;SDS011;15337;48.202;12.770;2022-08-21T07:09:22;5.40;;;4.65;;
4363;SDS011;15337;48.202;12.770;2022-08-21T07:11:49;5.25;;;4.82;;
4363;SDS011;15337;48.202;12.770;2022-08-21T07:14:18;7.35;;;4.43;;
4363;SDS011;15337;48.202;12.770;2022-08-21T07:16:45;6.40;;;5.90;;
4363;SDS011;15337;48.202;12.770;2022-08-21T07:19:12;6.50;;;6.03;;
4363;SDS011;15337;48.202;12.770;2022-08-21T07:21:40;5.50;;;5.20;;
4363;SDS011;15337;48.202;12.770;2022-08-21T07:24:07;6.30;;;5.47;;
4363;SDS011;15337;48.202;12.770;2022-08-21T07:26:34;6.22;;;4.65;;
4363;SDS011;15337;48.202;12.770;2022-08-21T07:29:02;5.72;;;4.75;;
4363;SDS011;15337;48.202;12.770;2022-08-21T07:31:29;5.47;;;5.28;;
4363;SDS011;15337;48.202;12.770;2022-08-21T07:33:57;8.15;;;6.47;;
4363;SDS011;15337;48.202;12.770;2022-08-21T07:36:24;6.15;;;5.85;;
4363;SDS011;15337;48.202;12.770;2022-08-21T07:38:52;8.55;;;5.70;;
4363;SDS011;15337;48.202;12.770;2022-08-21T07:41:20;5.97;;;5.68;;
4363;SDS011;15337;48.202;12.770;2022-08-21T07:43:48;7.38;;;5.63;;
4363;SDS011;15337;48.202;12.770;2022-08-21T07:46:15;6.85;;;6.43;;
4363;SDS011;15337;48.202;12.770;2022-08-21T07:48:43;6.95;;;6.45;;
4363;SDS011;15337;48.202;12.770;2022-08-21T07:51:11;6.18;;;5.78;;
4363;SDS011;15337;48.202;12.770;2022-08-21T07:53:40;6.55;;;5.65;;
4363;SDS011;15337;48.202;12.770;2022-08-21T07:56:08;6.13;;;5.65;;
4363;SDS011;15337;48.202;12.770;2022-08-21T07:58:36;7.55;;;6.97;;
4363;SDS011;15337;48.202;12.770;2022-08-21T08:01:03;7.07;;;6.28;;
4363;SDS011;15337;48.202;12.770;2022-08-21T08:03:31;10.07;;;6.60;;
4363;SDS011;15337;48.202;12.770;2022-08-21T08:05:58;6.97;;;6.50;;
4363;SDS011;15337;48.202;12.770;2022-08-21T08:08:25;7.22;;;6.40;;
4363;SDS011;15337;48.202;12.770;2022-08-21T08:10:52;7.55;;;7.15;;
4363;SDS011;15337;48.202;12.770;2022-08-21T08:13:23;6.93;;;6.32;;
4363;SDS011;15337;48.202;12.770;2022-08-21T08:15:50;7.07;;;6.65;;
4363;SDS011;15337;48.202;12.770;2022-08-21T08:18:17;7.38;;;6.88;;
4363;SDS011;15337;48.202;12.770;2022-08-21T08:20:45;6.70;;;6.40;;
4363;SDS011;15337;48.202;12.770;2022-08-21T08:23:12;7.70;;;6.75;;
4363;SDS011;15337;48.202;12.770;2022-08-21T08:25:39;7.85;;;7.35;;
4363;SDS011;15337;48.202;12.770;2022-08-21T08:28:06;7.25;;;6.70;;
4363;SDS011;15337;48.202;12.770;2022-08-21T08:30:35;7.90;;;7.45;;
4363;SDS011;15337;48.202;12.770;2022-08-21T08:33:02;7.07;;;6.68;;
4363;SDS011;15337;48.202;12.770;2022-08-21T08:35:29;7.43;;;6.72;;
4363;SDS011;15337;48.202;12.770;2022-08-21T08:37:56;6.47;;;5.75;;
4363;SDS011;15337;48.202;12.770;2022-08-21T08:40:25;7.10;;;6.70;;
4363;SDS011;15337;48.202;12.770;2022-08-21T08:43:00;6.70;;;6.13;;
4363;SDS011;15337;48.202;12.770;2022-08-21T08:45:27;7.30;;;7.00;;
4363;SDS011;15337;48.202;12.770;2022-08-21T08:47:59;7.90;;;7.40;;
4363;SDS011;15337;48.202;12.770;2022-08-21T08:50:33;7.05;;;6.55;;
4363;SDS011;15337;48.202;12.770;2022-08-21T08:53:07;7.63;;;6.55;;
4363;SDS011;15337;48.202;12.770;2022-08-21T08:55:40;8.38;;;6.85;;
4363;SDS011;15337;48.202;12.770;2022-08-21T08:58:09;7.82;;;7.53;;
4363;SDS011;15337;48.202;12.770;2022-08-21T09:00:42;6.78;;;6.38;;
4363;SDS011;15337;48.202;12.770;2022-08-21T09:03:12;7.53;;;7.13;;
4363;SDS011;15337;48.202;12.770;2022-08-21T09:05:40;5.88;;;5.57;;
4363;SDS011;15337;48.202;12.770;2022-08-21T09:08:23;6.35;;;6.05;;
4363;SDS011;15337;48.202;12.770;2022-08-21T09:11:00;7.38;;;6.07;;
4363;SDS011;15337;48.202;12.770;2022-08-21T09:13:33;7.45;;;6.80;;
4363;SDS011;15337;48.202;12.770;2022-08-21T09:16:13;7.72;;;7.13;;
4363;SDS011;15337;48.202;12.770;2022-08-21T09:18:53;7.70;;;6.90;;
4363;SDS011;15337;48.202;12.770;2022-08-21T09:21:31;6.88;;;6.50;;
4363;SDS011;15337;48.202;12.770;2022-08-21T09:24:09;7.43;;;6.93;;
4363;SDS011;15337;48.202;12.770;2022-08-21T09:26:49;7.03;;;6.03;;
4363;SDS011;15337;48.202;12.770;2022-08-21T09:29:23;8.07;;;7.03;;
4363;SDS011;15337;48.202;12.770;2022-08-21T09:31:54;7.03;;;6.63;;
4363;SDS011;15337;48.202;12.770;2022-08-21T09:34:25;6.53;;;6.07;;
4363;SDS011;15337;48.202;12.770;2022-08-21T09:36:54;6.82;;;6.53;;
4363;SDS011;15337;48.202;12.770;2022-08-21T09:39:23;6.00;;;5.70;;
4363;SDS011;15337;48.202;12.770;2022-08-21T09:41:56;6.63;;;6.22;;
4363;SDS011;15337;48.202;12.770;2022-08-21T09:44:25;7.15;;;6.75;;
4363;SDS011;15337;48.202;12.770;2022-08-21T09:46:54;5.53;;;5.20;;
4363;SDS011;15337;48.202;12.770;2022-08-21T09:49:30;5.85;;;5.55;;
4363;SDS011;15337;48.202;12.770;2022-08-21T09:51:59;6.57;;;6.07;;
4363;SDS011;15337;48.202;12.770;2022-08-21T09:54:29;6.90;;;6.40;;
4363;SDS011;15337;48.202;12.770;2022-08-21T09:56:58;8.20;;;7.65;;
4363;SDS011;15337;48.202;12.770;2022-08-21T09:59:44;6.32;;;5.97;;
4363;SDS011;15337;48.202;12.770;2022-08-21T10:02:22;6.30;;;5.90;;
4363;SDS011;15337;48.202;12.770;2022-08-21T10:04:54;10.77;;;6.10;;
4363;SDS011;15337;48.202;12.770;2022-08-21T10:07:24;6.57;;;6.28;;
4363;SDS011;15337;48.202;12.770;2022-08-21T10:10:00;6.25;;;5.95;;
4363;SDS011;15337;48.202;12.770;2022-08-21T10:12:32;6.10;;;5.70;;
4363;SDS011;15337;48.202;12.770;2022-08-21T10:15:09;6.47;;;6.10;;
4363;SDS011;15337;48.202;12.770;2022-08-21T10:17:44;5.70;;;5.40;;
4363;SDS011;15337;48.202;12.770;2022-08-21T10:20:22;5.43;;;5.13;;
4363;SDS011;15337;48.202;12.770;2022-08-21T10:22:58;6.50;;;6.03;;
4363;SDS011;15337;48.202;12.770;2022-08-21T10:25:35;5.97;;;5.55;;
4363;SDS011;15337;48.202;12.770;2022-08-21T10:28:13;6.65;;;6.22;;
4363;SDS011;15337;48.202;12.770;2022-08-21T10:30:46;7.10;;;6.70;;
4363;SDS011;15337;48.202;12.770;2022-08-21T10:33:24;6.93;;;6.50;;
4363;SDS011;15337;48.202;12.770;2022-08-21T10:36:03;5.60;;;5.10;;
4363;SDS011;15337;48.202;12.770;2022-08-21T10:38:40;10.73;;;7.10;;
4363;SDS011;15337;48.202;12.770;2022-08-21T10:41:21;6.63;;;6.20;;
4363;SDS011;15337;48.202;12.770;2022-08-21T10:44:00;5.32;;;5.13;;
4363;SDS011;15337;48.202;12.770;2022-08-21T10:46:44;6.15;;;5.40;;
4363;SDS011;15337;48.202;12.770;2022-08-21T10:49:20;5.88;;;5.60;;
4363;SDS011;15337;48.202;12.770;2022-08-21T10:51:56;7.07;;;5.85;;
4363;SDS011;15337;48.202;12.770;2022-08-21T10:54:44;7.25;;;5.28;;
4363;SDS011;15337;48.202;12.770;2022-08-21T10:57:19;7.97;;;6.00;;
4363;SDS011;15337;48.202;12.770;2022-08-21T10:59:55;7.40;;;6.82;;
4363;SDS011;15337;48.202;12.770;2022-08-21T11:02:26;7.18;;;6.63;;
4363;SDS011;15337;48.202;12.770;2022-08-21T11:04:59;5.72;;;5.43;;
4363;SDS011;15337;48.202;12.770;2022-08-21T11:07:34;6.40;;;6.00;;
4363;SDS011;15337;48.202;12.770;2022-08-21T11:10:06;6.30;;;6.00;;
4363;SDS011;15337;48.202;12.770;2022-08-21T11:12:40;6.03;;;5.82;;
4363;SDS011;15337;48.202;12.770;2022-08-21T11:15:23;6.32;;;5.75;;
4363;SDS011;15337;48.202;12.770;2022-08-21T11:17:54;5.30;;;5.00;;
4363;SDS011;15337;48.202;12.770;2022-08-21T11:20:28;9.48;;;5.38;;
4363;SDS011;15337;48.202;12.770;2022-08-21T11:23:03;6.00;;;5.55;;
4363;SDS011;15337;48.202;12.770;2022-08-21T11:25:36;6.50;;;5.05;;
4363;SDS011;15337;48.202;12.770;2022-08-21T11:28:06;5.43;;;5.13;;
4363;SDS011;15337;48.202;12.770;2022-08-21T11:30:39;6.53;;;6.22;;
4363;SDS011;15337;48.202;12.770;2022-08-21T11:33:18;6.63;;;6.32;;
4363;SDS011;15337;48.202;12.770;2022-08-21T11:35:56;5.90;;;5.60;;
4363;SDS011;15337;48.202;12.770;2022-08-21T11:38:33;5.70;;;5.30;;
4363;SDS011;15337;48.202;12.770;2022-08-21T11:41:08;5.90;;;5.60;;
4363;SDS011;15337;48.202;12.770;2022-08-21T11:43:51;6.43;;;6.13;;
4363;SDS011;15337;48.202;12.770;2022-08-21T11:46:29;6.90;;;6.28;;
4363;SDS011;15337;48.202;12.770;2022-08-21T11:49:06;6.00;;;5.70;;
4363;SDS011;15337;48.202;12.770;2022-08-21T11:52:01;5.65;;;5.35;;
4363;SDS011;15337;48.202;12.770;2022-08-21T11:54:37;5.65;;;5.35;;
4363;SDS011;15337;48.202;12.770;2022-08-21T11:57:13;5.30;;;5.10;;
4363;SDS011;15337;48.202;12.770;2022-08-21T11:59:45;9.45;;;5.47;;
4363;SDS011;15337;48.202;12.770;2022-08-21T12:02:17;6.85;;;5.60;;
4363;SDS011;15337;48.202;12.770;2022-08-21T12:04:47;5.72;;;5.50;;
4363;SDS011;15337;48.202;12.770;2022-08-21T12:07:28;5.75;;;5.45;;
4363;SDS011;15337;48.202;12.770;2022-08-21T12:09:59;5.93;;;5.70;;
4363;SDS011;15337;48.202;12.770;2022-08-21T12:12:28;6.53;;;6.00;;
4363;SDS011;15337;48.202;12.770;2022-08-21T12:17:54;6.15;;;5.88;;
4363;SDS011;15337;48.202;12.770;2022-08-21T12:20:33;6.85;;;6.45;;
4363;SDS011;15337;48.202;12.770;2022-08-21T12:23:14;9.02;;;8.38;;
4363;SDS011;15337;48.202;12.770;2022-08-21T12:25:46;7.20;;;6.80;;
4363;SDS011;15337;48.202;12.770;2022-08-21T12:28:26;6.97;;;6.68;;
4363;SDS011;15337;48.202;12.770;2022-08-21T12:30:55;7.82;;;7.35;;
4363;SDS011;15337;48.202;12.770;2022-08-21T12:33:23;7.32;;;6.95;;
4363;SDS011;15337;48.202;12.770;2022-08-21T12:36:00;7.28;;;6.78;;
4363;SDS011;15337;48.202;12.770;2022-08-21T12:38:31;7.57;;;7.13;;
4363;SDS011;15337;48.202;12.770;2022-08-21T12:41:03;6.32;;;6.03;;
4363;SDS011;15337;48.202;12.770;2022-08-21T12:43:34;7.40;;;7.10;;
4363;SDS011;15337;48.202;12.770;2022-08-21T12:46:03;7.07;;;6.72;;
4363;SDS011;15337;48.202;12.770;2022-08-21T12:48:31;8.27;;;7.55;;
4363;SDS011;15337;48.202;12.770;2022-08-21T12:51:07;6.95;;;6.65;;
4363;SDS011;15337;48.202;12.770;2022-08-21T12:53:38;8.30;;;7.80;;
4363;SDS011;15337;48.202;12.770;2022-08-21T12:56:12;7.07;;;6.78;;
4363;SDS011;15337;48.202;12.770;2022-08-21T12:58:44;6.70;;;6.40;;
4363;SDS011;15337;48.202;12.770;2022-08-21T13:01:13;6.78;;;6.32;;
4363;SDS011;15337;48.202;12.770;2022-08-21T13:03:45;6.13;;;5.82;;
4363;SDS011;15337;48.202;12.770;2022-08-21T13:06:13;6.32;;;5.95;;
4363;SDS011;15337;48.202;12.770;2022-08-21T13:08:41;6.07;;;5.78;;
4363;SDS011;15337;48.202;12.770;2022-08-21T13:11:12;5.97;;;5.68;;
4363;SDS011;15337;48.202;12.770;2022-08-21T13:13:43;5.55;;;5.15;;
4363;SDS011;15337;48.202;12.770;2022-08-21T13:16:17;5.50;;;5.20;;
4363;SDS011;15337;48.202;12.770;2022-08-21T13:18:55;5.38;;;5.18;;
4363;SDS011;15337;48.202;12.770;2022-08-21T13:21:27;7.30;;;6.60;;
4363;SDS011;15337;48.202;12.770;2022-08-21T13:24:06;6.47;;;6.03;;
4363;SDS011;15337;48.202;12.770;2022-08-21T13:26:40;6.63;;;6.22;;
4363;SDS011;15337;48.202;12.770;2022-08-21T13:29:07;6.05;;;5.75;;
4363;SDS011;15337;48.202;12.770;2022-08-21T13:31:35;7.10;;;6.80;;
4363;SDS011;15337;48.202;12.770;2022-08-21T13:34:04;7.20;;;6.55;;
4363;SDS011;15337;48.202;12.770;2022-08-21T13:36:34;6.70;;;6.40;;
4363;SDS011;15337;48.202;12.770;2022-08-21T13:39:02;6.15;;;5.80;;
4363;SDS011;15337;48.202;12.770;2022-08-21T13:41:32;7.10;;;6.70;;
4363;SDS011;15337;48.202;12.770;2022-08-21T13:44:05;8.10;;;7.55;;
4363;SDS011;15337;48.202;12.770;2022-08-21T13:46:40;6.75;;;6.45;;
4363;SDS011;15337;48.202;12.770;2022-08-21T13:49:07;7.07;;;6.60;;
4363;SDS011;15337;48.202;12.770;2022-08-21T13:51:35;6.35;;;6.05;;
4363;SDS011;15337;48.202;12.770;2022-08-21T13:54:13;7.70;;;7.32;;
4363;SDS011;15337;48.202;12.770;2022-08-21T13:56:42;8.70;;;6.20;;
4363;SDS011;15337;48.202;12.770;2022-08-21T13:59:22;8.35;;;6.05;;
4363;SDS011;15337;48.202;12.770;2022-08-21T14:01:51;6.32;;;5.70;;
4363;SDS011;15337;48.202;12.770;2022-08-21T14:04:24;6.28;;;5.93;;
4363;SDS011;15337;48.202;12.770;2022-08-21T14:06:56;5.68;;;5.25;;
4363;SDS011;15337;48.202;12.770;2022-08-21T14:09:25;9.38;;;5.97;;
4363;SDS011;15337;48.202;12.770;2022-08-21T14:11:55;7.10;;;6.50;;
4363;SDS011;15337;48.202;12.770;2022-08-21T14:14:25;10.93;;;6.63;;
4363;SDS011;15337;48.202;12.770;2022-08-21T14:16:57;7.05;;;6.30;;
4363;SDS011;15337;48.202;12.770;2022-08-21T14:19:26;6.05;;;5.45;;
4363;SDS011;15337;48.202;12.770;2022-08-21T14:21:54;6.60;;;6.30;;
4363;SDS011;15337;48.202;12.770;2022-08-21T14:24:26;6.00;;;5.70;;
4363;SDS011;15337;48.202;12.770;2022-08-21T14:26:55;5.57;;;5.28;;
4363;SDS011;15337;48.202;12.770;2022-08-21T14:29:32;7.95;;;5.50;;
4363;SDS011;15337;48.202;12.770;2022-08-21T14:32:08;6.20;;;5.88;;
4363;SDS011;15337;48.202;12.770;2022-08-21T14:34:36;5.50;;;5.30;;
4363;SDS011;15337;48.202;12.770;2022-08-21T14:37:03;7.05;;;6.13;;
4363;SDS011;15337;48.202;12.770;2022-08-21T14:39:30;4.85;;;4.65;;
4363;SDS011;15337;48.202;12.770;2022-08-21T14:41:57;4.70;;;4.28;;
4363;SDS011;15337;48.202;12.770;2022-08-21T14:44:26;5.07;;;4.80;;
4363;SDS011;15337;48.202;12.770;2022-08-21T14:46:54;5.53;;;5.22;;
4363;SDS011;15337;48.202;12.770;2022-08-21T14:49:22;6.57;;;6.03;;
4363;SDS011;15337;48.202;12.770;2022-08-21T14:51:52;5.60;;;5.40;;
4363;SDS011;15337;48.202;12.770;2022-08-21T14:54:22;5.63;;;5.43;;
4363;SDS011;15337;48.202;12.770;2022-08-21T14:56:49;6.05;;;5.60;;
4363;SDS011;15337;48.202;12.770;2022-08-21T14:59:16;5.45;;;5.15;;
4363;SDS011;15337;48.202;12.770;2022-08-21T15:01:44;6.10;;;5.80;;
4363;SDS011;15337;48.202;12.770;2022-08-21T15:04:12;6.32;;;6.03;;
4363;SDS011;15337;48.202;12.770;2022-08-21T15:06:39;5.80;;;5.53;;